Time;durP1;ratioP1;P1;durP2;ratioP2;P2;SDS_P1;SDS_P2;PMS_P1;PMS_P2;Temp;Humidity;BMP_temperature;BMP_pressure;BME280_temperature;BME280_humidity;BME280_pressure;Samples;Min_cycle;Max_cycle;Signal;HPM_P1;HPM_P2
2021/10/10 00:00:45;;;;;;;26.27;15.82;;;7.70;99.90;;;;;;5066842;28;20028;-59
2021/10/10 00:03:11;;;;;;;25.13;14.65;;;7.60;99.90;;;;;;5066318;28;20025;-57
2021/10/10 00:05:36;;;;;;;27.30;15.60;;;7.60;99.90;;;;;;5066132;28;20036;-54
2021/10/10 00:08:02;;;;;;;25.40;15.63;;;7.70;99.90;;;;;;5069117;28;20066;-59
2021/10/10 00:10:30;;;;;;;29.70;14.90;;;7.60;99.90;;;;;;5063161;28;20032;-59
2021/10/10 00:12:56;;;;;;;26.80;14.88;;;7.50;99.90;;;;;;5073908;28;20448;-57
2021/10/10 00:15:21;;;;;;;25.67;15.35;;;7.40;99.90;;;;;;5064855;28;20021;-57
2021/10/10 00:17:47;;;;;;;31.20;16.58;;;7.40;99.90;;;;;;5063057;28;20053;-57
2021/10/10 00:20:13;;;;;;;25.67;14.52;;;7.40;99.90;;;;;;5065715;28;20032;-60
2021/10/10 00:22:38;;;;;;;29.17;14.07;;;7.40;99.90;;;;;;5065590;28;20028;-58
2021/10/10 00:25:05;;;;;;;28.35;14.68;;;7.40;99.90;;;;;;5068183;28;20028;-58
2021/10/10 00:27:30;;;;;;;34.08;15.38;;;7.30;99.90;;;;;;5069437;28;20028;-59
2021/10/10 00:29:56;;;;;;;27.35;16.17;;;7.30;99.90;;;;;;5065288;28;20445;-58
2021/10/10 00:32:21;;;;;;;32.65;16.55;;;7.30;99.90;;;;;;5056999;28;20024;-59
2021/10/10 00:34:48;;;;;;;33.03;15.73;;;7.30;99.90;;;;;;5063016;28;20389;-54
2021/10/10 00:37:13;;;;;;;28.55;16.48;;;7.30;99.90;;;;;;5066198;28;20371;-58
2021/10/10 00:39:39;;;;;;;26.95;15.90;;;7.20;99.90;;;;;;5063042;28;20031;-57
2021/10/10 00:42:08;;;;;;;29.83;16.13;;;7.10;99.90;;;;;;5058348;28;20017;-57
2021/10/10 00:44:34;;;;;;;28.52;16.27;;;7.00;99.90;;;;;;5064740;28;20454;-55
2021/10/10 00:47:00;;;;;;;32.22;16.17;;;7.00;99.90;;;;;;5066909;28;20139;-55
2021/10/10 00:49:25;;;;;;;27.55;16.05;;;6.90;99.90;;;;;;5070101;28;20827;-53
2021/10/10 00:51:52;;;;;;;30.60;15.32;;;7.00;99.90;;;;;;5066056;28;20020;-55
2021/10/10 00:54:19;;;;;;;27.58;16.00;;;6.90;99.90;;;;;;5068225;28;20016;-54
2021/10/10 00:56:46;;;;;;;33.10;17.17;;;7.00;99.90;;;;;;5065501;28;20021;-56
2021/10/10 00:59:14;;;;;;;30.92;17.02;;;7.00;99.90;;;;;;5068184;28;20017;-56
2021/10/10 01:01:40;;;;;;;31.15;17.15;;;7.10;99.90;;;;;;5064356;28;20021;-59
2021/10/10 01:04:06;;;;;;;29.33;15.70;;;7.00;99.90;;;;;;5066604;28;20029;-60
2021/10/10 01:06:32;;;;;;;32.47;17.08;;;6.90;99.90;;;;;;5063568;28;20552;-58
2021/10/10 01:08:58;;;;;;;32.47;18.08;;;6.80;99.90;;;;;;5066205;28;20073;-55
2021/10/10 01:11:27;;;;;;;30.48;16.73;;;6.80;99.90;;;;;;5069018;28;20032;-58
2021/10/10 01:13:53;;;;;;;34.60;18.20;;;6.70;99.90;;;;;;5068792;28;20048;-57
2021/10/10 01:16:19;;;;;;;27.05;16.35;;;6.70;99.90;;;;;;5063696;28;20564;-58
2021/10/10 01:18:44;;;;;;;36.70;18.27;;;6.60;99.90;;;;;;5067361;28;20390;-56
2021/10/10 01:21:10;;;;;;;37.95;18.50;;;6.50;99.90;;;;;;5063972;28;20025;-55
2021/10/10 01:23:36;;;;;;;36.85;18.23;;;6.50;99.90;;;;;;5064269;28;20028;-55
2021/10/10 01:26:02;;;;;;;33.15;18.77;;;6.40;99.90;;;;;;5068993;28;20024;-57
2021/10/10 01:28:27;;;;;;;37.78;18.70;;;6.40;99.90;;;;;;5066768;28;20036;-57
2021/10/10 01:30:53;;;;;;;30.63;17.67;;;6.40;99.90;;;;;;5057837;28;20082;-59
2021/10/10 01:33:18;;;;;;;31.15;17.27;;;6.30;99.90;;;;;;5068976;28;20570;-58
2021/10/10 01:35:44;;;;;;;33.92;17.48;;;6.30;99.90;;;;;;5069445;28;20028;-60
2021/10/10 01:38:15;;;;;;;35.75;17.92;;;6.30;99.90;;;;;;5066335;28;20028;-56
2021/10/10 01:40:43;;;;;;;30.17;17.08;;;6.30;99.90;;;;;;5061508;28;20035;-54
2021/10/10 01:43:09;;;;;;;30.80;17.70;;;6.30;99.90;;;;;;5067199;28;20032;-57
2021/10/10 01:45:34;;;;;;;38.30;16.73;;;6.30;99.90;;;;;;5066480;28;20029;-58
2021/10/10 01:48:00;;;;;;;37.22;17.58;;;6.30;99.90;;;;;;5062359;28;20028;-59
2021/10/10 01:50:26;;;;;;;31.08;17.65;;;6.30;99.90;;;;;;5064183;28;20068;-59
2021/10/10 01:52:51;;;;;;;42.28;19.02;;;6.30;99.90;;;;;;5066063;28;20040;-58
2021/10/10 01:55:18;;;;;;;34.40;17.48;;;6.30;99.90;;;;;;5060634;28;20024;-57
2021/10/10 01:57:44;;;;;;;35.17;18.77;;;6.20;99.90;;;;;;5064138;28;20039;-59
2021/10/10 02:00:11;;;;;;;30.75;18.38;;;6.20;99.90;;;;;;5059663;28;20021;-54
2021/10/10 02:02:37;;;;;;;34.05;19.30;;;6.20;99.90;;;;;;5061595;28;20040;-58
2021/10/10 02:05:03;;;;;;;34.53;17.13;;;6.30;99.90;;;;;;5066885;28;20024;-58
2021/10/10 02:07:29;;;;;;;36.40;16.77;;;6.30;99.90;;;;;;5061379;28;20052;-60
2021/10/10 02:09:54;;;;;;;33.90;17.00;;;6.30;99.90;;;;;;5063945;28;20097;-59
2021/10/10 02:12:20;;;;;;;35.30;17.80;;;6.30;99.90;;;;;;5064411;28;20028;-61
2021/10/10 02:14:45;;;;;;;32.80;17.48;;;6.30;99.90;;;;;;5058665;28;20025;-57
2021/10/10 02:17:11;;;;;;;32.75;16.38;;;6.20;99.90;;;;;;5065873;28;20020;-57
2021/10/10 02:19:36;;;;;;;36.67;16.67;;;6.20;99.90;;;;;;5066212;28;20029;-56
2021/10/10 02:22:02;;;;;;;30.70;16.70;;;6.20;99.90;;;;;;5062618;28;20037;-58
2021/10/10 02:24:27;;;;;;;33.92;17.00;;;6.10;99.90;;;;;;5066828;28;20028;-58
2021/10/10 02:26:53;;;;;;;33.95;16.13;;;6.20;99.90;;;;;;5067958;28;20059;-56
2021/10/10 02:29:20;;;;;;;36.63;16.20;;;6.10;99.90;;;;;;5067815;28;20490;-58
2021/10/10 02:31:45;;;;;;;30.90;16.73;;;6.10;99.90;;;;;;5065833;28;20374;-58
2021/10/10 02:34:13;;;;;;;36.45;18.15;;;6.00;99.90;;;;;;5060802;28;20501;-58
2021/10/10 02:36:40;;;;;;;32.28;16.23;;;6.00;99.90;;;;;;5064694;28;20023;-58
2021/10/10 02:39:06;;;;;;;37.53;17.85;;;5.90;99.90;;;;;;5064096;28;20478;-58
2021/10/10 02:41:32;;;;;;;37.08;18.05;;;5.90;99.90;;;;;;5067207;28;20040;-58
2021/10/10 02:43:58;;;;;;;32.25;16.88;;;5.80;99.90;;;;;;5067886;28;20116;-59
2021/10/10 02:46:23;;;;;;;38.90;18.02;;;5.80;99.90;;;;;;5059814;28;20041;-59
2021/10/10 02:48:49;;;;;;;28.63;16.13;;;5.90;99.90;;;;;;5061113;28;20390;-58
2021/10/10 02:51:15;;;;;;;29.52;17.70;;;5.90;99.90;;;;;;5064456;28;20081;-59
2021/10/10 02:53:40;;;;;;;30.25;16.65;;;5.80;99.90;;;;;;5055826;28;20028;-57
2021/10/10 02:56:06;;;;;;;30.05;15.82;;;5.80;99.90;;;;;;5060078;28;20020;-56
2021/10/10 02:58:32;;;;;;;31.60;16.42;;;5.90;99.90;;;;;;5060982;28;20032;-60
2021/10/10 03:00:58;;;;;;;34.03;18.20;;;5.90;99.90;;;;;;5066235;28;20085;-58
2021/10/10 03:03:24;;;;;;;30.55;16.05;;;5.90;99.90;;;;;;5066519;28;20103;-57
2021/10/10 03:05:49;;;;;;;30.50;17.20;;;6.00;99.90;;;;;;5070473;28;20508;-58
2021/10/10 03:08:15;;;;;;;31.00;16.92;;;5.90;99.90;;;;;;5062036;28;20546;-59
2021/10/10 03:10:41;;;;;;;31.90;16.40;;;5.90;99.90;;;;;;5061736;28;20418;-59
2021/10/10 03:13:06;;;;;;;28.60;15.70;;;5.90;99.90;;;;;;5063490;28;20025;-58
2021/10/10 03:15:33;;;;;;;30.55;17.27;;;5.80;99.90;;;;;;5066604;28;20028;-59
2021/10/10 03:17:58;;;;;;;30.33;15.68;;;5.80;99.90;;;;;;5091095;23;20055;-57
2021/10/10 03:20:24;;;;;;;36.50;16.95;;;5.80;99.90;;;;;;5068027;28;20040;-59
2021/10/10 03:22:49;;;;;;;36.42;17.27;;;5.80;99.90;;;;;;5067587;28;20024;-60
2021/10/10 03:25:15;;;;;;;27.58;14.82;;;5.90;99.90;;;;;;5067771;28;20060;-58
2021/10/10 03:27:41;;;;;;;31.08;15.80;;;5.90;99.90;;;;;;5068460;28;20505;-58
2021/10/10 03:30:06;;;;;;;28.55;16.90;;;6.00;99.90;;;;;;5066860;28;20032;-58
2021/10/10 03:32:32;;;;;;;32.53;16.50;;;6.00;99.90;;;;;;5068165;28;20020;-57
2021/10/10 03:34:58;;;;;;;29.23;14.38;;;6.00;99.90;;;;;;5067582;28;20390;-55
2021/10/10 03:37:23;;;;;;;25.60;14.55;;;5.90;99.90;;;;;;5068303;28;20386;-58
2021/10/10 03:39:49;;;;;;;32.00;18.13;;;5.80;99.90;;;;;;5072217;28;20475;-57
2021/10/10 03:42:15;;;;;;;29.77;15.45;;;5.70;99.90;;;;;;5069324;28;20024;-58
2021/10/10 03:44:41;;;;;;;32.63;16.60;;;5.60;99.90;;;;;;5068325;28;20020;-59
2021/10/10 03:47:06;;;;;;;36.33;17.52;;;5.60;99.90;;;;;;5071590;28;20024;-58
2021/10/10 03:49:33;;;;;;;32.17;17.75;;;5.50;99.90;;;;;;5071161;28;20107;-58
2021/10/10 03:51:59;;;;;;;34.38;16.88;;;5.50;99.90;;;;;;5071205;28;20035;-57
2021/10/10 03:56:51;;;;;;;30.40;16.73;;;5.30;99.90;;;;;;5070676;28;20029;-58
2021/10/10 03:59:16;;;;;;;32.08;17.30;;;5.30;99.90;;;;;;5069788;28;20032;-57
2021/10/10 04:01:42;;;;;;;32.50;18.02;;;5.30;99.90;;;;;;5070594;28;20040;-59
2021/10/10 04:04:09;;;;;;;37.45;17.35;;;5.30;99.90;;;;;;5070435;28;20017;-58
2021/10/10 04:06:34;;;;;;;32.67;17.13;;;5.30;99.90;;;;;;5053405;28;20414;-57
2021/10/10 04:09:00;;;;;;;29.85;16.35;;;5.40;99.90;;;;;;5071958;28;20033;-56
2021/10/10 04:11:25;;;;;;;33.47;16.20;;;5.40;99.90;;;;;;5068569;28;20028;-58
2021/10/10 04:13:51;;;;;;;27.33;15.25;;;5.30;99.90;;;;;;5070398;28;20129;-58
2021/10/10 04:16:17;;;;;;;33.10;15.93;;;5.40;99.90;;;;;;5069029;28;20039;-59
2021/10/10 04:18:42;;;;;;;35.75;17.13;;;5.40;99.90;;;;;;5070760;28;21101;-59
2021/10/10 04:21:08;;;;;;;30.23;16.80;;;5.30;99.90;;;;;;5069668;28;20039;-58
2021/10/10 04:23:33;;;;;;;33.30;17.10;;;5.30;99.90;;;;;;5071692;28;20032;-58
2021/10/10 04:26:00;;;;;;;31.30;17.08;;;5.40;99.90;;;;;;5071147;28;20051;-57
2021/10/10 04:28:25;;;;;;;30.40;15.73;;;5.40;99.90;;;;;;5069867;28;20032;-58
2021/10/10 04:30:51;;;;;;;42.22;16.98;;;5.50;99.90;;;;;;5070097;28;20112;-56
2021/10/10 04:33:17;;;;;;;29.08;16.42;;;5.50;99.90;;;;;;5071063;28;20030;-57
2021/10/10 04:35:43;;;;;;;33.38;17.58;;;5.50;99.90;;;;;;5071077;28;20056;-59
2021/10/10 04:38:10;;;;;;;35.20;17.80;;;5.50;99.90;;;;;;5070808;28;20047;-58
2021/10/10 04:40:36;;;;;;;27.48;16.08;;;5.60;99.90;;;;;;5069959;28;20032;-59
2021/10/10 04:43:06;;;;;;;32.72;17.30;;;5.60;99.90;;;;;;5071238;28;20101;-59
2021/10/10 04:45:32;;;;;;;32.17;16.13;;;5.70;99.90;;;;;;5070572;28;20063;-57
2021/10/10 04:47:58;;;;;;;29.50;16.85;;;5.60;99.90;;;;;;5069196;28;20466;-56
2021/10/10 04:50:23;;;;;;;32.20;17.00;;;5.60;99.90;;;;;;5069510;28;20028;-58
2021/10/10 04:52:49;;;;;;;33.33;16.25;;;5.70;99.90;;;;;;5070676;28;20405;-58
2021/10/10 04:55:15;;;;;;;30.10;16.55;;;5.70;99.90;;;;;;5064172;28;20035;-54
2021/10/10 04:57:40;;;;;;;32.33;16.80;;;5.70;99.90;;;;;;5069764;28;20028;-59
2021/10/10 05:00:06;;;;;;;36.78;17.92;;;5.60;99.90;;;;;;5069606;28;20053;-57
2021/10/10 05:02:32;;;;;;;32.92;18.17;;;5.60;99.90;;;;;;5069186;28;20036;-58
2021/10/10 05:04:57;;;;;;;29.70;16.15;;;5.60;99.90;;;;;;5070133;28;20032;-56
2021/10/10 05:07:23;;;;;;;29.70;17.27;;;5.60;99.90;;;;;;5068566;28;20016;-57
2021/10/10 05:09:48;;;;;;;35.00;17.20;;;5.50;99.90;;;;;;5067551;28;20470;-58
2021/10/10 05:12:14;;;;;;;36.42;18.23;;;5.50;99.90;;;;;;5068852;28;20452;-58
2021/10/10 05:14:41;;;;;;;29.63;17.02;;;5.60;99.90;;;;;;5070013;28;20016;-56
2021/10/10 05:17:07;;;;;;;31.50;17.25;;;5.50;99.90;;;;;;5069343;28;20020;-58
2021/10/10 05:19:32;;;;;;;30.42;15.95;;;5.50;99.90;;;;;;5069459;28;20115;-58
2021/10/10 05:21:58;;;;;;;34.00;16.98;;;5.50;99.90;;;;;;5068297;28;20115;-59
2021/10/10 05:24:24;;;;;;;35.05;17.40;;;5.50;99.90;;;;;;5065251;28;20039;-58
2021/10/10 05:26:49;;;;;;;33.40;17.83;;;5.50;99.90;;;;;;5069206;28;20071;-56
2021/10/10 05:29:15;;;;;;;34.42;17.02;;;5.40;99.90;;;;;;5069866;28;20486;-58
2021/10/10 05:31:41;;;;;;;34.00;17.42;;;5.30;99.90;;;;;;5065988;28;20033;-58
2021/10/10 05:34:06;;;;;;;35.70;19.30;;;5.30;99.90;;;;;;5064261;28;20490;-56
2021/10/10 05:36:32;;;;;;;38.22;17.45;;;5.20;99.90;;;;;;5069395;28;20032;-58
2021/10/10 05:38:58;;;;;;;35.50;16.80;;;5.20;99.90;;;;;;5068757;28;20016;-58
2021/10/10 05:41:24;;;;;;;36.13;18.23;;;5.10;99.90;;;;;;5069472;28;21651;-59
2021/10/10 05:43:50;;;;;;;36.65;18.85;;;5.10;99.90;;;;;;5066251;28;20033;-56
2021/10/10 05:46:15;;;;;;;44.45;21.20;;;5.10;99.90;;;;;;5065113;28;20173;-59
2021/10/10 05:48:41;;;;;;;43.17;19.63;;;5.10;99.90;;;;;;5068996;28;20097;-58
2021/10/10 05:51:07;;;;;;;39.38;19.63;;;5.10;99.90;;;;;;5066984;28;20470;-59
2021/10/10 05:53:32;;;;;;;36.35;18.75;;;5.10;99.90;;;;;;5070111;28;20551;-59
2021/10/10 05:56:00;;;;;;;39.92;19.73;;;5.00;99.90;;;;;;5068846;28;20367;-59
2021/10/10 05:58:27;;;;;;;38.17;19.00;;;5.00;99.90;;;;;;5069782;28;20028;-58
2021/10/10 06:00:54;;;;;;;38.30;18.85;;;5.00;99.90;;;;;;5068598;28;20020;-57
2021/10/10 06:03:20;;;;;;;38.67;20.02;;;5.00;99.90;;;;;;5069577;28;20029;-56
2021/10/10 06:05:46;;;;;;;34.75;19.83;;;5.00;99.90;;;;;;5064689;28;20110;-58
2021/10/10 06:08:12;;;;;;;35.97;19.15;;;4.90;99.90;;;;;;5063132;28;20025;-58
2021/10/10 06:10:38;;;;;;;36.10;20.02;;;4.90;99.90;;;;;;5065415;28;20036;-58
2021/10/10 06:13:06;;;;;;;38.63;20.15;;;4.90;99.90;;;;;;5069122;28;20074;-57
2021/10/10 06:15:32;;;;;;;38.03;19.38;;;4.90;99.90;;;;;;5068778;28;20103;-57
2021/10/10 06:17:57;;;;;;;40.00;20.55;;;4.90;99.90;;;;;;5068149;28;20024;-57
2021/10/10 06:20:23;;;;;;;34.30;19.65;;;4.90;99.90;;;;;;5069065;28;20091;-59
2021/10/10 06:22:49;;;;;;;39.70;20.17;;;5.00;99.90;;;;;;5068687;28;20024;-58
2021/10/10 06:25:15;;;;;;;43.90;20.17;;;5.00;99.90;;;;;;5069231;28;20505;-60
2021/10/10 06:27:41;;;;;;;39.08;20.30;;;5.10;99.90;;;;;;5067217;28;20109;-59
2021/10/10 06:30:07;;;;;;;37.30;20.42;;;5.10;99.90;;;;;;5067972;28;20439;-59
2021/10/10 06:32:33;;;;;;;36.10;19.67;;;5.20;99.90;;;;;;5068138;28;20104;-59
2021/10/10 06:34:58;;;;;;;45.88;20.45;;;5.30;99.90;;;;;;5067054;28;20067;-58
2021/10/10 06:37:24;;;;;;;39.00;20.00;;;5.30;99.90;;;;;;5067058;28;20398;-60
2021/10/10 06:39:49;;;;;;;46.47;20.73;;;5.30;99.90;;;;;;5069129;28;20021;-56
2021/10/10 06:42:16;;;;;;;40.05;20.27;;;5.30;99.90;;;;;;5068733;28;20032;-56
2021/10/10 06:44:42;;;;;;;37.15;20.35;;;5.40;99.90;;;;;;5068651;28;20036;-57
2021/10/10 06:47:07;;;;;;;42.33;20.98;;;5.40;99.90;;;;;;5066509;28;20086;-59
2021/10/10 06:49:33;;;;;;;44.40;21.40;;;5.50;99.90;;;;;;5067216;28;20056;-57
2021/10/10 06:51:58;;;;;;;37.92;20.63;;;5.50;99.90;;;;;;5067845;28;20032;-59
2021/10/10 06:54:24;;;;;;;40.67;19.98;;;5.60;99.90;;;;;;5068259;28;20409;-58
2021/10/10 06:56:49;;;;;;;44.75;21.33;;;5.70;99.90;;;;;;5068515;28;20517;-59
2021/10/10 06:59:15;;;;;;;44.72;21.25;;;5.80;99.90;;;;;;5064195;28;20029;-58
2021/10/10 07:01:41;;;;;;;39.63;21.45;;;5.80;99.90;;;;;;5060253;28;20064;-57
2021/10/10 07:04:06;;;;;;;40.95;21.15;;;5.90;99.90;;;;;;5068306;28;20051;-59
2021/10/10 07:06:32;;;;;;;41.50;20.92;;;5.90;99.90;;;;;;5058679;28;20118;-58
2021/10/10 07:08:58;;;;;;;43.05;22.27;;;5.90;99.90;;;;;;5067327;28;20819;-59
2021/10/10 07:11:23;;;;;;;41.95;21.40;;;6.00;99.90;;;;;;5062486;28;20020;-59
2021/10/10 07:13:49;;;;;;;42.88;21.55;;;6.10;99.90;;;;;;5070360;28;20020;-58
2021/10/10 07:16:16;;;;;;;43.58;22.58;;;6.10;99.90;;;;;;5064764;28;20039;-58
2021/10/10 07:18:49;;;;;;;40.63;21.17;;;6.20;99.90;;;;;;5062827;28;20059;-58
2021/10/10 07:24:53;;;;;;;;;;;6.30;99.90;;;;;;5052930;28;20043;-58
2021/10/10 07:26:51;;;;;;;38.03;20.13;;;6.40;99.90;;;;;;5068037;28;20562;-58
2021/10/10 07:29:17;;;;;;;39.65;21.92;;;6.50;99.90;;;;;;5047654;28;20120;-59
2021/10/10 07:31:43;;;;;;;40.42;22.25;;;6.60;99.90;;;;;;5062056;28;20029;-58
2021/10/10 07:34:09;;;;;;;42.92;23.50;;;6.60;99.90;;;;;;5050255;28;20025;-58
2021/10/10 07:36:35;;;;;;;41.80;23.05;;;6.70;99.90;;;;;;5033198;28;20017;-58
2021/10/10 07:39:02;;;;;;;46.67;24.13;;;6.80;99.90;;;;;;5066282;28;20111;-57
2021/10/10 07:41:27;;;;;;;46.30;24.23;;;6.90;99.90;;;;;;5069894;28;20051;-55
2021/10/10 07:43:53;;;;;;;47.92;24.67;;;7.00;99.90;;;;;;5071182;28;20470;-58
2021/10/10 07:46:21;;;;;;;44.38;23.23;;;7.00;99.90;;;;;;5070144;28;20490;-58
2021/10/10 07:48:47;;;;;;;50.45;24.35;;;7.10;99.90;;;;;;5071073;28;20119;-59
2021/10/10 07:51:14;;;;;;;45.40;24.15;;;7.20;99.90;;;;;;5067362;28;20029;-59
2021/10/10 07:53:39;;;;;;;44.38;24.65;;;7.30;99.90;;;;;;5072061;28;20035;-59
2021/10/10 07:56:05;;;;;;;42.58;24.10;;;7.30;99.90;;;;;;5066985;28;20029;-55
2021/10/10 07:58:31;;;;;;;44.22;23.67;;;7.50;99.90;;;;;;5070704;28;20066;-59
2021/10/10 08:00:56;;;;;;;46.22;23.73;;;7.60;99.90;;;;;;5070976;28;20035;-58
2021/10/10 08:03:23;;;;;;;41.72;24.15;;;7.60;99.90;;;;;;5065105;28;20025;-56
2021/10/10 08:05:49;;;;;;;48.25;25.10;;;7.70;99.90;;;;;;5066487;28;20093;-58
2021/10/10 08:08:14;;;;;;;49.03;24.55;;;7.80;99.90;;;;;;5066334;28;20032;-58
2021/10/10 08:10:40;;;;;;;48.90;25.67;;;7.90;99.90;;;;;;5068328;28;20083;-59
2021/10/10 08:13:06;;;;;;;48.70;24.55;;;8.00;99.90;;;;;;5069554;28;20017;-59
2021/10/10 08:15:32;;;;;;;43.42;24.75;;;8.10;99.90;;;;;;5066010;28;20098;-59
2021/10/10 08:17:58;;;;;;;37.95;22.85;;;8.20;99.90;;;;;;5069337;28;20020;-59
2021/10/10 08:20:24;;;;;;;52.78;24.08;;;8.30;99.90;;;;;;5065467;28;20115;-59
2021/10/10 08:22:49;;;;;;;40.85;22.15;;;8.40;99.90;;;;;;5068158;28;20070;-59
2021/10/10 08:25:15;;;;;;;40.15;23.08;;;8.50;99.90;;;;;;5066197;28;20032;-59
2021/10/10 08:27:43;;;;;;;41.60;22.92;;;8.50;99.90;;;;;;5067741;28;20123;-57
2021/10/10 08:30:12;;;;;;;46.08;22.73;;;8.60;99.90;;;;;;5067965;28;20095;-58
2021/10/10 08:32:38;;;;;;;39.33;21.75;;;8.70;99.90;;;;;;5065826;28;20028;-57
2021/10/10 08:35:06;;;;;;;39.83;22.17;;;8.70;99.90;;;;;;5066904;28;20025;-55
2021/10/10 08:37:32;;;;;;;41.47;21.10;;;8.80;99.90;;;;;;5066922;28;20498;-57
2021/10/10 08:39:58;;;;;;;36.15;22.00;;;8.90;99.90;;;;;;5068043;28;20032;-59
2021/10/10 08:42:33;;;;;;;41.88;21.80;;;9.00;99.90;;;;;;5061304;28;20023;-58
2021/10/10 08:45:23;;;;;;;40.60;21.70;;;9.10;99.90;;;;;;5068225;28;20784;-58
2021/10/10 08:47:47;;;;;;;35.10;19.98;;;9.10;99.90;;;;;;5065443;28;20044;-57
2021/10/10 08:50:19;;;;;;;39.92;22.08;;;9.20;99.90;;;;;;5067507;28;20549;-55
2021/10/10 08:52:46;;;;;;;40.35;21.88;;;9.20;99.90;;;;;;5069789;28;20025;-56
2021/10/10 08:55:13;;;;;;;37.88;22.02;;;9.20;99.90;;;;;;5070021;28;20028;-57
2021/10/10 08:57:39;;;;;;;51.45;22.25;;;9.30;99.90;;;;;;5064870;28;20536;-59
2021/10/10 09:00:07;;;;;;;42.65;23.50;;;9.40;99.90;;;;;;5069573;28;20477;-58
2021/10/10 09:02:33;;;;;;;44.10;24.60;;;9.60;99.90;;;;;;5069616;28;20025;-59
2021/10/10 09:05:08;;;;;;;38.20;21.65;;;9.70;99.90;;;;;;5069834;28;20021;-58
2021/10/10 09:07:36;;;;;;;39.58;21.20;;;9.80;99.90;;;;;;5065057;28;20501;-56
2021/10/10 09:10:27;;;;;;;38.47;21.60;;;10.00;99.90;;;;;;5065116;28;20107;-56
2021/10/10 09:13:08;;;;;;;36.38;21.15;;;10.10;99.90;;;;;;5060856;28;20013;-57
2021/10/10 09:15:36;;;;;;;39.22;20.60;;;10.20;99.90;;;;;;5062072;28;20029;-57
2021/10/10 09:18:04;;;;;;;42.83;21.65;;;10.40;99.90;;;;;;5062306;28;20521;-56
2021/10/10 09:20:42;;;;;;;40.20;21.42;;;10.60;99.90;;;;;;5077599;22;20040;-60
2021/10/10 09:23:27;;;;;;;38.30;21.48;;;10.80;99.90;;;;;;5063736;28;20164;-62
2021/10/10 09:25:56;;;;;;;39.67;21.63;;;11.00;99.90;;;;;;5068312;28;20028;-58
2021/10/10 09:28:25;;;;;;;37.80;20.27;;;11.10;99.90;;;;;;5065407;28;20025;-58
2021/10/10 09:31:00;;;;;;;34.85;19.13;;;11.30;99.90;;;;;;5065008;28;20025;-53
2021/10/10 09:33:48;;;;;;;36.20;18.90;;;11.50;99.90;;;;;;5066791;28;20106;-55
2021/10/10 09:36:21;;;;;;;41.33;19.65;;;11.70;99.90;;;;;;5066848;28;20091;-54
2021/10/10 09:39:08;;;;;;;34.28;18.65;;;11.90;99.90;;;;;;5070386;28;20020;-56
2021/10/10 09:41:47;;;;;;;39.60;18.95;;;12.00;99.90;;;;;;5069734;28;20025;-61
2021/10/10 09:46:44;;;;;;;34.38;18.63;;;12.30;99.90;;;;;;5070268;28;20024;-58
2021/10/10 09:49:23;;;;;;;32.33;18.00;;;12.40;99.90;;;;;;5070477;28;20017;-57
2021/10/10 09:51:49;;;;;;;32.15;18.50;;;12.50;99.90;;;;;;5070268;28;20078;-63
2021/10/10 09:54:15;;;;;;;31.90;17.42;;;12.60;99.90;;;;;;5070127;28;20021;-62
2021/10/10 09:57:02;;;;;;;32.03;18.48;;;12.70;99.90;;;;;;5070457;28;20031;-60
2021/10/10 09:59:27;;;;;;;32.13;17.42;;;12.70;99.90;;;;;;5070149;28;20020;-62
2021/10/10 10:01:53;;;;;;;37.63;18.17;;;12.80;99.90;;;;;;5070226;28;20533;-60
2021/10/10 10:04:18;;;;;;;27.48;16.63;;;12.80;99.90;;;;;;5070407;28;20027;-57
2021/10/10 10:06:44;;;;;;;29.65;16.80;;;12.90;99.90;;;;;;5070357;28;20059;-57
2021/10/10 10:09:12;;;;;;;28.65;16.33;;;13.10;99.90;;;;;;5069746;28;20027;-62
2021/10/10 10:11:43;;;;;;;28.00;17.42;;;13.10;99.90;;;;;;5069583;28;20028;-57
2021/10/10 10:14:14;;;;;;;33.35;16.23;;;13.20;99.90;;;;;;5070729;28;20029;-62
2021/10/10 10:16:45;;;;;;;31.80;17.27;;;13.20;99.90;;;;;;5069906;28;20019;-60
2021/10/10 10:19:21;;;;;;;40.55;17.70;;;13.30;99.90;;;;;;5069080;28;20024;-63
2021/10/10 10:21:49;;;;;;;34.53;17.33;;;13.30;99.90;;;;;;5070185;28;20035;-61
2021/10/10 10:24:15;;;;;;;29.83;16.52;;;13.30;99.90;;;;;;5069852;28;20401;-59
2021/10/10 10:26:41;;;;;;;30.50;16.73;;;13.30;99.90;;;;;;5070164;28;20020;-60
2021/10/10 10:29:18;;;;;;;32.42;16.92;;;13.40;99.90;;;;;;5069776;28;20024;-60
2021/10/10 10:31:45;;;;;;;33.00;17.67;;;13.40;99.90;;;;;;5068676;28;20025;-62
2021/10/10 10:34:33;;;;;;;24.50;15.27;;;13.40;99.90;;;;;;5070226;28;20018;-59
2021/10/10 10:37:04;;;;;;;32.65;18.73;;;13.40;99.90;;;;;;5070097;28;20012;-60
2021/10/10 10:39:50;;;;;;;25.75;15.85;;;13.40;99.90;;;;;;5070066;28;20016;-60
2021/10/10 10:42:24;;;;;;;31.33;16.55;;;13.50;99.90;;;;;;5069041;28;20082;-61
2021/10/10 10:44:51;;;;;;;38.28;16.40;;;13.60;99.90;;;;;;5070218;28;20048;-60
2021/10/10 10:47:43;;;;;;;24.85;15.38;;;13.60;99.90;;;;;;5072012;28;20033;-60
2021/10/10 10:50:28;;;;;;;27.75;17.05;;;13.70;99.90;;;;;;5072890;28;20037;-61
2021/10/10 10:53:05;;;;;;;26.40;15.02;;;13.90;99.90;;;;;;5073063;28;20066;-59
2021/10/10 10:55:36;;;;;;;30.88;17.80;;;14.00;99.90;;;;;;5074044;28;20355;-58
2021/10/10 10:58:11;;;;;;;36.78;17.30;;;14.20;99.90;;;;;;5073580;28;20017;-58
2021/10/10 11:00:43;;;;;;;26.73;16.02;;;14.00;99.90;;;;;;5073715;28;20427;-59
2021/10/10 11:03:16;;;;;;;24.67;14.52;;;14.30;99.90;;;;;;5073910;28;20374;-62
2021/10/10 11:05:49;;;;;;;25.45;15.20;;;14.50;99.90;;;;;;5072171;28;20021;-62
2021/10/10 11:08:27;;;;;;;26.52;15.05;;;14.50;99.90;;;;;;5073867;28;20059;-62
2021/10/10 11:11:23;;;;;;;29.80;13.93;;;14.70;99.90;;;;;;5072096;28;20041;-61
2021/10/10 11:14:02;;;;;;;25.55;14.00;;;14.80;99.90;;;;;;5073643;28;20017;-62
2021/10/10 11:16:30;;;;;;;21.35;13.80;;;15.00;99.90;;;;;;5073778;28;20012;-62
2021/10/10 11:19:05;;;;;;;30.75;14.45;;;15.10;99.90;;;;;;5073298;28;20069;-60
2021/10/10 11:21:35;;;;;;;29.17;14.02;;;15.20;99.90;;;;;;5073206;28;20032;-58
2021/10/10 11:24:02;;;;;;;37.42;16.05;;;15.20;99.90;;;;;;5073581;28;20020;-59
2021/10/10 11:26:31;;;;;;;22.52;15.23;;;14.90;99.90;;;;;;5072998;28;20031;-62
2021/10/10 11:29:05;;;;;;;24.55;14.98;;;14.80;99.90;;;;;;5073497;28;20032;-62
2021/10/10 11:31:32;;;;;;;29.27;14.70;;;14.90;99.90;;;;;;5072734;28;20077;-58
2021/10/10 11:34:09;;;;;;;24.15;14.20;;;15.10;99.90;;;;;;5072111;28;20263;-62
2021/10/10 11:36:36;;;;;;;23.98;13.90;;;15.20;99.90;;;;;;5073128;28;20385;-61
2021/10/10 11:39:05;;;;;;;24.65;14.23;;;15.30;99.90;;;;;;5071628;28;20017;-58
2021/10/10 11:41:36;;;;;;;21.45;13.00;;;15.40;99.90;;;;;;5072909;28;20020;-62
2021/10/10 11:44:07;;;;;;;25.85;15.02;;;15.40;99.90;;;;;;5072527;28;20032;-59
2021/10/10 11:46:52;;;;;;;24.63;13.65;;;15.70;99.90;;;;;;5073632;28;20123;-62
2021/10/10 11:49:21;;;;;;;23.88;13.52;;;15.90;99.90;;;;;;5073222;28;20365;-61
2021/10/10 11:51:50;;;;;;;25.75;12.38;;;15.80;99.90;;;;;;5072550;28;20086;-60
2021/10/10 11:54:37;;;;;;;20.75;11.75;;;15.90;99.90;;;;;;5072863;28;20009;-60
2021/10/10 11:57:04;;;;;;;29.42;13.35;;;16.20;99.90;;;;;;5072608;28;20031;-60
2021/10/10 11:59:30;;;;;;;19.92;12.18;;;16.30;99.90;;;;;;5071935;28;20079;-61
2021/10/10 12:01:57;;;;;;;24.50;13.30;;;16.20;99.90;;;;;;5072370;28;20413;-62
2021/10/10 12:04:23;;;;;;;25.27;12.43;;;16.30;99.90;;;;;;5071395;28;20036;-62
2021/10/10 12:06:50;;;;;;;20.75;12.38;;;16.60;99.90;;;;;;5073262;28;20414;-62
2021/10/10 12:09:16;;;;;;;25.42;12.52;;;16.80;99.90;;;;;;5072408;28;20021;-61
2021/10/10 12:12:04;;;;;;;22.60;13.55;;;16.90;99.90;;;;;;5072063;28;20031;-61
2021/10/10 12:14:40;;;;;;;24.55;13.20;;;16.90;99.90;;;;;;5072997;28;20027;-61
2021/10/10 12:17:08;;;;;;;25.23;12.57;;;16.80;99.90;;;;;;5072434;28;20020;-59
2021/10/10 12:19:43;;;;;;;23.95;13.70;;;16.80;99.90;;;;;;5072299;28;20477;-61
2021/10/10 12:22:09;;;;;;;22.02;12.10;;;16.40;99.90;;;;;;5072157;28;20115;-61
2021/10/10 12:24:43;;;;;;;27.73;11.80;;;16.30;99.90;;;;;;5072606;28;20481;-60
2021/10/10 12:27:09;;;;;;;19.45;10.75;;;16.10;99.90;;;;;;5072128;28;20027;-59
2021/10/10 12:29:42;;;;;;;21.70;11.90;;;15.70;99.90;;;;;;5071035;28;20044;-61
2021/10/10 12:32:19;;;;;;;19.35;12.38;;;15.70;99.90;;;;;;5071370;28;20024;-60
2021/10/10 12:34:45;;;;;;;19.92;11.80;;;15.90;99.90;;;;;;5071954;28;20021;-60
2021/10/10 12:37:23;;;;;;;25.50;12.80;;;16.00;99.90;;;;;;5072493;28;20094;-59
2021/10/10 12:39:50;;;;;;;20.17;12.00;;;16.30;99.90;;;;;;5072288;28;20017;-57
2021/10/10 12:42:21;;;;;;;25.38;12.50;;;16.40;99.90;;;;;;5071385;28;20369;-58
2021/10/10 12:45:05;;;;;;;22.50;12.30;;;16.60;99.90;;;;;;5071854;28;20013;-55